sensor_id;sensor_type;location;lat;lon;timestamp;P1;durP1;ratioP1;P2;durP2;ratioP2
4486;SDS011;2256;48.740;9.106;2024-01-15T00:00:15;16.90;;;6.85;;
4486;SDS011;2256;48.740;9.106;2024-01-15T00:02:42;12.63;;;5.40;;
4486;SDS011;2256;48.740;9.106;2024-01-15T00:05:09;21.95;;;6.28;;
4486;SDS011;2256;48.740;9.106;2024-01-15T00:07:36;16.52;;;5.88;;
4486;SDS011;2256;48.740;9.106;2024-01-15T00:10:03;15.85;;;6.03;;
4486;SDS011;2256;48.740;9.106;2024-01-15T00:12:32;12.23;;;4.65;;
4486;SDS011;2256;48.740;9.106;2024-01-15T00:14:58;15.95;;;5.38;;
4486;SDS011;2256;48.740;9.106;2024-01-15T00:17:25;15.38;;;6.05;;
4486;SDS011;2256;48.740;9.106;2024-01-15T00:19:52;18.55;;;6.03;;
4486;SDS011;2256;48.740;9.106;2024-01-15T00:22:19;23.83;;;7.00;;
4486;SDS011;2256;48.740;9.106;2024-01-15T00:24:46;24.98;;;6.20;;
4486;SDS011;2256;48.740;9.106;2024-01-15T00:27:12;14.75;;;5.30;;
4486;SDS011;2256;48.740;9.106;2024-01-15T00:29:40;12.57;;;4.50;;
4486;SDS011;2256;48.740;9.106;2024-01-15T00:32:07;19.40;;;5.10;;
4486;SDS011;2256;48.740;9.106;2024-01-15T00:34:34;14.13;;;5.03;;
4486;SDS011;2256;48.740;9.106;2024-01-15T00:37:01;14.85;;;4.68;;
4486;SDS011;2256;48.740;9.106;2024-01-15T00:39:28;17.63;;;4.30;;
4486;SDS011;2256;48.740;9.106;2024-01-15T00:41:54;24.27;;;6.28;;
4486;SDS011;2256;48.740;9.106;2024-01-15T00:44:21;12.30;;;4.55;;
4486;SDS011;2256;48.740;9.106;2024-01-15T00:46:49;15.88;;;5.65;;
4486;SDS011;2256;48.740;9.106;2024-01-15T00:49:16;15.18;;;5.20;;
4486;SDS011;2256;48.740;9.106;2024-01-15T00:51:43;14.70;;;4.82;;
4486;SDS011;2256;48.740;9.106;2024-01-15T00:54:10;8.80;;;4.63;;
4486;SDS011;2256;48.740;9.106;2024-01-15T00:56:36;20.02;;;5.35;;
4486;SDS011;2256;48.740;9.106;2024-01-15T00:59:04;8.98;;;4.60;;
4486;SDS011;2256;48.740;9.106;2024-01-15T01:01:31;12.07;;;4.97;;
4486;SDS011;2256;48.740;9.106;2024-01-15T01:03:59;7.72;;;4.05;;
4486;SDS011;2256;48.740;9.106;2024-01-15T01:06:25;19.50;;;4.78;;
4486;SDS011;2256;48.740;9.106;2024-01-15T01:08:52;14.07;;;5.22;;
4486;SDS011;2256;48.740;9.106;2024-01-15T01:11:18;20.53;;;6.10;;
4486;SDS011;2256;48.740;9.106;2024-01-15T01:13:45;16.30;;;4.70;;
4486;SDS011;2256;48.740;9.106;2024-01-15T01:16:12;24.73;;;5.35;;
4486;SDS011;2256;48.740;9.106;2024-01-15T01:18:38;10.82;;;4.43;;
4486;SDS011;2256;48.740;9.106;2024-01-15T01:21:07;18.08;;;4.28;;
4486;SDS011;2256;48.740;9.106;2024-01-15T01:23:33;13.80;;;4.72;;
4486;SDS011;2256;48.740;9.106;2024-01-15T01:26:00;12.50;;;4.82;;
4486;SDS011;2256;48.740;9.106;2024-01-15T01:28:27;15.85;;;5.13;;
4486;SDS011;2256;48.740;9.106;2024-01-15T01:30:54;21.67;;;5.53;;
4486;SDS011;2256;48.740;9.106;2024-01-15T01:33:21;18.90;;;5.32;;
4486;SDS011;2256;48.740;9.106;2024-01-15T01:35:48;16.65;;;5.00;;
4486;SDS011;2256;48.740;9.106;2024-01-15T01:38:16;11.00;;;4.85;;
4486;SDS011;2256;48.740;9.106;2024-01-15T01:40:42;21.08;;;4.68;;
4486;SDS011;2256;48.740;9.106;2024-01-15T01:43:09;11.88;;;3.72;;
4486;SDS011;2256;48.740;9.106;2024-01-15T01:45:35;25.37;;;6.60;;
4486;SDS011;2256;48.740;9.106;2024-01-15T01:48:02;21.45;;;5.93;;
4486;SDS011;2256;48.740;9.106;2024-01-15T01:50:30;13.57;;;4.07;;
4486;SDS011;2256;48.740;9.106;2024-01-15T01:52:57;14.50;;;4.88;;
4486;SDS011;2256;48.740;9.106;2024-01-15T01:55:26;9.88;;;3.80;;
4486;SDS011;2256;48.740;9.106;2024-01-15T01:57:55;15.85;;;5.25;;
4486;SDS011;2256;48.740;9.106;2024-01-15T02:00:22;13.35;;;5.70;;
4486;SDS011;2256;48.740;9.106;2024-01-15T02:02:49;17.10;;;4.88;;
4486;SDS011;2256;48.740;9.106;2024-01-15T02:05:18;14.55;;;5.13;;
4486;SDS011;2256;48.740;9.106;2024-01-15T02:07:46;18.75;;;6.32;;
4486;SDS011;2256;48.740;9.106;2024-01-15T02:10:14;11.88;;;3.83;;
4486;SDS011;2256;48.740;9.106;2024-01-15T02:12:43;15.27;;;5.35;;
4486;SDS011;2256;48.740;9.106;2024-01-15T02:15:10;17.10;;;5.13;;
4486;SDS011;2256;48.740;9.106;2024-01-15T02:20:22;9.43;;;4.70;;
4486;SDS011;2256;48.740;9.106;2024-01-15T02:22:49;15.85;;;4.55;;
4486;SDS011;2256;48.740;9.106;2024-01-15T02:25:17;11.55;;;4.20;;
4486;SDS011;2256;48.740;9.106;2024-01-15T02:27:44;12.13;;;3.10;;
4486;SDS011;2256;48.740;9.106;2024-01-15T02:30:12;12.93;;;4.15;;
4486;SDS011;2256;48.740;9.106;2024-01-15T02:32:39;13.18;;;4.82;;
4486;SDS011;2256;48.740;9.106;2024-01-15T02:35:06;12.73;;;4.05;;
4486;SDS011;2256;48.740;9.106;2024-01-15T02:37:33;16.45;;;4.68;;
4486;SDS011;2256;48.740;9.106;2024-01-15T02:40:00;21.50;;;4.97;;
4486;SDS011;2256;48.740;9.106;2024-01-15T02:42:28;10.65;;;4.22;;
4486;SDS011;2256;48.740;9.106;2024-01-15T02:44:54;10.15;;;3.88;;
4486;SDS011;2256;48.740;9.106;2024-01-15T02:47:21;15.57;;;4.07;;
4486;SDS011;2256;48.740;9.106;2024-01-15T02:49:48;14.77;;;3.95;;
4486;SDS011;2256;48.740;9.106;2024-01-15T02:52:15;8.88;;;3.95;;
4486;SDS011;2256;48.740;9.106;2024-01-15T02:54:41;10.25;;;4.40;;
4486;SDS011;2256;48.740;9.106;2024-01-15T02:57:08;12.20;;;3.70;;
4486;SDS011;2256;48.740;9.106;2024-01-15T02:59:36;11.95;;;4.45;;
4486;SDS011;2256;48.740;9.106;2024-01-15T03:02:03;17.02;;;3.97;;
4486;SDS011;2256;48.740;9.106;2024-01-15T03:04:30;14.00;;;3.83;;
4486;SDS011;2256;48.740;9.106;2024-01-15T03:06:57;19.42;;;4.80;;
4486;SDS011;2256;48.740;9.106;2024-01-15T03:09:24;18.35;;;4.53;;
4486;SDS011;2256;48.740;9.106;2024-01-15T03:11:50;21.13;;;5.40;;
4486;SDS011;2256;48.740;9.106;2024-01-15T03:14:17;8.98;;;3.80;;
4486;SDS011;2256;48.740;9.106;2024-01-15T03:16:46;9.68;;;4.70;;
4486;SDS011;2256;48.740;9.106;2024-01-15T03:19:13;11.77;;;4.43;;
4486;SDS011;2256;48.740;9.106;2024-01-15T03:21:40;13.20;;;4.70;;
4486;SDS011;2256;48.740;9.106;2024-01-15T03:24:06;11.55;;;5.00;;
4486;SDS011;2256;48.740;9.106;2024-01-15T03:26:33;10.57;;;5.00;;
4486;SDS011;2256;48.740;9.106;2024-01-15T03:29:00;13.05;;;4.90;;
4486;SDS011;2256;48.740;9.106;2024-01-15T03:31:27;15.20;;;4.47;;
4486;SDS011;2256;48.740;9.106;2024-01-15T03:33:55;14.35;;;3.95;;
4486;SDS011;2256;48.740;9.106;2024-01-15T03:36:22;17.58;;;5.25;;
4486;SDS011;2256;48.740;9.106;2024-01-15T03:38:48;13.98;;;4.35;;
4486;SDS011;2256;48.740;9.106;2024-01-15T03:41:15;13.98;;;4.53;;
4486;SDS011;2256;48.740;9.106;2024-01-15T03:43:42;14.40;;;5.30;;
4486;SDS011;2256;48.740;9.106;2024-01-15T03:46:09;12.77;;;5.18;;
4486;SDS011;2256;48.740;9.106;2024-01-15T03:48:35;9.95;;;4.50;;
4486;SDS011;2256;48.740;9.106;2024-01-15T03:51:04;14.10;;;4.45;;
4486;SDS011;2256;48.740;9.106;2024-01-15T03:53:31;6.82;;;3.58;;
4486;SDS011;2256;48.740;9.106;2024-01-15T03:55:57;19.23;;;5.70;;
4486;SDS011;2256;48.740;9.106;2024-01-15T03:58:24;15.77;;;4.60;;
4486;SDS011;2256;48.740;9.106;2024-01-15T04:00:51;13.95;;;3.92;;
4486;SDS011;2256;48.740;9.106;2024-01-15T04:03:18;13.27;;;4.00;;
4486;SDS011;2256;48.740;9.106;2024-01-15T04:05:44;7.75;;;2.95;;
4486;SDS011;2256;48.740;9.106;2024-01-15T04:08:12;17.13;;;5.13;;
4486;SDS011;2256;48.740;9.106;2024-01-15T04:10:39;12.13;;;3.53;;
4486;SDS011;2256;48.740;9.106;2024-01-15T04:13:06;11.25;;;4.53;;
4486;SDS011;2256;48.740;9.106;2024-01-15T04:15:33;13.93;;;4.53;;
4486;SDS011;2256;48.740;9.106;2024-01-15T04:18:01;5.72;;;2.85;;
4486;SDS011;2256;48.740;9.106;2024-01-15T04:20:29;14.85;;;5.22;;
4486;SDS011;2256;48.740;9.106;2024-01-15T04:22:56;15.57;;;4.93;;
4486;SDS011;2256;48.740;9.106;2024-01-15T04:25:24;17.42;;;5.47;;
4486;SDS011;2256;48.740;9.106;2024-01-15T04:27:51;14.90;;;4.38;;
4486;SDS011;2256;48.740;9.106;2024-01-15T04:30:18;10.65;;;4.40;;
4486;SDS011;2256;48.740;9.106;2024-01-15T04:32:44;11.38;;;5.03;;
4486;SDS011;2256;48.740;9.106;2024-01-15T04:35:11;14.98;;;5.82;;
4486;SDS011;2256;48.740;9.106;2024-01-15T04:37:39;12.32;;;4.25;;
4486;SDS011;2256;48.740;9.106;2024-01-15T04:40:06;11.10;;;5.10;;
4486;SDS011;2256;48.740;9.106;2024-01-15T04:42:35;14.40;;;3.95;;
4486;SDS011;2256;48.740;9.106;2024-01-15T04:45:02;10.05;;;3.65;;
4486;SDS011;2256;48.740;9.106;2024-01-15T04:47:29;11.48;;;4.18;;
4486;SDS011;2256;48.740;9.106;2024-01-15T04:49:55;15.70;;;4.93;;
4486;SDS011;2256;48.740;9.106;2024-01-15T04:52:22;18.88;;;4.65;;
4486;SDS011;2256;48.740;9.106;2024-01-15T04:54:49;13.75;;;4.55;;
4486;SDS011;2256;48.740;9.106;2024-01-15T04:57:16;15.90;;;5.50;;
4486;SDS011;2256;48.740;9.106;2024-01-15T04:59:44;16.95;;;4.30;;
4486;SDS011;2256;48.740;9.106;2024-01-15T05:02:11;13.93;;;4.72;;
4486;SDS011;2256;48.740;9.106;2024-01-15T05:04:37;9.50;;;4.43;;
4486;SDS011;2256;48.740;9.106;2024-01-15T05:07:04;16.98;;;4.72;;
4486;SDS011;2256;48.740;9.106;2024-01-15T05:09:31;14.82;;;5.80;;
4486;SDS011;2256;48.740;9.106;2024-01-15T05:11:59;19.83;;;6.38;;
4486;SDS011;2256;48.740;9.106;2024-01-15T05:14:32;15.93;;;4.80;;
4486;SDS011;2256;48.740;9.106;2024-01-15T05:17:01;18.48;;;5.75;;
4486;SDS011;2256;48.740;9.106;2024-01-15T05:19:29;10.07;;;4.53;;
4486;SDS011;2256;48.740;9.106;2024-01-15T05:21:56;9.35;;;4.40;;
4486;SDS011;2256;48.740;9.106;2024-01-15T05:24:23;17.65;;;4.72;;
4486;SDS011;2256;48.740;9.106;2024-01-15T05:26:51;16.00;;;4.75;;
4486;SDS011;2256;48.740;9.106;2024-01-15T05:29:18;11.35;;;4.30;;
4486;SDS011;2256;48.740;9.106;2024-01-15T05:31:45;15.90;;;5.40;;
4486;SDS011;2256;48.740;9.106;2024-01-15T05:34:14;11.85;;;4.90;;
4486;SDS011;2256;48.740;9.106;2024-01-15T05:36:42;15.52;;;4.28;;
4486;SDS011;2256;48.740;9.106;2024-01-15T05:39:10;9.77;;;4.80;;
4486;SDS011;2256;48.740;9.106;2024-01-15T05:41:37;14.18;;;4.25;;
4486;SDS011;2256;48.740;9.106;2024-01-15T05:44:04;16.15;;;4.95;;
4486;SDS011;2256;48.740;9.106;2024-01-15T05:46:31;11.45;;;4.90;;
4486;SDS011;2256;48.740;9.106;2024-01-15T05:48:58;21.38;;;4.75;;
4486;SDS011;2256;48.740;9.106;2024-01-15T05:51:26;19.33;;;4.82;;
4486;SDS011;2256;48.740;9.106;2024-01-15T05:53:53;12.00;;;4.50;;
4486;SDS011;2256;48.740;9.106;2024-01-15T05:56:20;14.82;;;5.93;;
4486;SDS011;2256;48.740;9.106;2024-01-15T05:58:47;13.82;;;5.15;;
4486;SDS011;2256;48.740;9.106;2024-01-15T06:01:13;15.77;;;4.82;;
4486;SDS011;2256;48.740;9.106;2024-01-15T06:03:40;9.63;;;4.10;;
4486;SDS011;2256;48.740;9.106;2024-01-15T06:06:08;15.80;;;4.43;;
4486;SDS011;2256;48.740;9.106;2024-01-15T06:08:37;12.80;;;4.55;;
4486;SDS011;2256;48.740;9.106;2024-01-15T06:11:04;8.93;;;4.75;;
4486;SDS011;2256;48.740;9.106;2024-01-15T06:13:33;7.22;;;3.58;;
4486;SDS011;2256;48.740;9.106;2024-01-15T06:16:00;9.80;;;4.13;;
4486;SDS011;2256;48.740;9.106;2024-01-15T06:18:27;13.45;;;5.60;;
4486;SDS011;2256;48.740;9.106;2024-01-15T06:20:53;19.73;;;5.20;;
4486;SDS011;2256;48.740;9.106;2024-01-15T06:23:20;11.05;;;4.95;;
4486;SDS011;2256;48.740;9.106;2024-01-15T06:28:18;14.90;;;4.13;;
4486;SDS011;2256;48.740;9.106;2024-01-15T06:30:46;29.33;;;4.50;;
4486;SDS011;2256;48.740;9.106;2024-01-15T06:33:14;17.48;;;5.60;;
4486;SDS011;2256;48.740;9.106;2024-01-15T06:35:41;17.67;;;5.45;;
4486;SDS011;2256;48.740;9.106;2024-01-15T06:38:09;8.45;;;3.85;;
4486;SDS011;2256;48.740;9.106;2024-01-15T06:40:36;6.97;;;3.55;;
4486;SDS011;2256;48.740;9.106;2024-01-15T06:43:06;12.18;;;4.32;;
4486;SDS011;2256;48.740;9.106;2024-01-15T06:45:33;14.48;;;4.65;;
4486;SDS011;2256;48.740;9.106;2024-01-15T06:48:00;9.13;;;3.55;;
4486;SDS011;2256;48.740;9.106;2024-01-15T06:50:27;15.10;;;4.80;;
4486;SDS011;2256;48.740;9.106;2024-01-15T06:52:53;11.05;;;4.40;;
4486;SDS011;2256;48.740;9.106;2024-01-15T06:55:20;14.90;;;6.25;;
4486;SDS011;2256;48.740;9.106;2024-01-15T06:57:47;10.20;;;4.28;;
4486;SDS011;2256;48.740;9.106;2024-01-15T07:00:16;8.55;;;3.72;;
4486;SDS011;2256;48.740;9.106;2024-01-15T07:02:44;13.75;;;4.05;;
4486;SDS011;2256;48.740;9.106;2024-01-15T07:05:11;13.73;;;4.45;;
4486;SDS011;2256;48.740;9.106;2024-01-15T07:07:39;9.32;;;4.25;;
4486;SDS011;2256;48.740;9.106;2024-01-15T07:10:06;12.50;;;4.88;;
4486;SDS011;2256;48.740;9.106;2024-01-15T07:12:34;7.00;;;3.33;;
4486;SDS011;2256;48.740;9.106;2024-01-15T07:15:01;10.27;;;4.20;;
4486;SDS011;2256;48.740;9.106;2024-01-15T07:17:30;11.30;;;3.92;;
4486;SDS011;2256;48.740;9.106;2024-01-15T07:19:57;11.75;;;4.82;;
4486;SDS011;2256;48.740;9.106;2024-01-15T07:22:24;14.20;;;4.70;;
4486;SDS011;2256;48.740;9.106;2024-01-15T07:24:51;8.25;;;3.78;;
4486;SDS011;2256;48.740;9.106;2024-01-15T07:27:18;5.75;;;3.22;;
4486;SDS011;2256;48.740;9.106;2024-01-15T07:29:44;15.10;;;4.72;;
4486;SDS011;2256;48.740;9.106;2024-01-15T07:32:11;19.15;;;5.30;;
4486;SDS011;2256;48.740;9.106;2024-01-15T07:34:39;17.88;;;5.78;;
4486;SDS011;2256;48.740;9.106;2024-01-15T07:37:06;13.95;;;4.38;;
4486;SDS011;2256;48.740;9.106;2024-01-15T07:39:33;11.95;;;4.03;;
4486;SDS011;2256;48.740;9.106;2024-01-15T07:42:00;12.90;;;3.92;;
4486;SDS011;2256;48.740;9.106;2024-01-15T07:44:33;19.08;;;4.65;;
4486;SDS011;2256;48.740;9.106;2024-01-15T07:47:00;10.60;;;3.28;;
4486;SDS011;2256;48.740;9.106;2024-01-15T07:49:27;14.63;;;4.30;;
4486;SDS011;2256;48.740;9.106;2024-01-15T07:51:55;14.10;;;5.13;;
4486;SDS011;2256;48.740;9.106;2024-01-15T07:54:22;11.05;;;4.65;;
4486;SDS011;2256;48.740;9.106;2024-01-15T07:56:55;7.97;;;3.88;;
4486;SDS011;2256;48.740;9.106;2024-01-15T07:59:25;13.88;;;4.00;;
4486;SDS011;2256;48.740;9.106;2024-01-15T08:01:52;13.70;;;3.97;;
4486;SDS011;2256;48.740;9.106;2024-01-15T08:04:19;15.18;;;4.32;;
4486;SDS011;2256;48.740;9.106;2024-01-15T08:06:47;8.75;;;3.60;;
4486;SDS011;2256;48.740;9.106;2024-01-15T08:09:15;12.43;;;3.90;;
4486;SDS011;2256;48.740;9.106;2024-01-15T08:11:42;12.57;;;3.95;;
4486;SDS011;2256;48.740;9.106;2024-01-15T08:14:11;11.48;;;3.70;;
4486;SDS011;2256;48.740;9.106;2024-01-15T08:16:38;8.10;;;2.73;;
4486;SDS011;2256;48.740;9.106;2024-01-15T08:19:05;12.73;;;5.07;;
4486;SDS011;2256;48.740;9.106;2024-01-15T08:21:34;16.83;;;4.50;;
4486;SDS011;2256;48.740;9.106;2024-01-15T08:24:01;10.82;;;3.80;;
4486;SDS011;2256;48.740;9.106;2024-01-15T08:26:30;14.48;;;5.05;;
4486;SDS011;2256;48.740;9.106;2024-01-15T08:28:58;11.70;;;4.30;;
4486;SDS011;2256;48.740;9.106;2024-01-15T08:31:25;14.15;;;4.28;;
4486;SDS011;2256;48.740;9.106;2024-01-15T08:33:52;8.30;;;3.78;;
4486;SDS011;2256;48.740;9.106;2024-01-15T08:36:19;9.30;;;4.10;;
4486;SDS011;2256;48.740;9.106;2024-01-15T08:38:45;15.90;;;5.28;;
4486;SDS011;2256;48.740;9.106;2024-01-15T08:41:12;13.45;;;3.95;;
4486;SDS011;2256;48.740;9.106;2024-01-15T08:43:41;10.32;;;3.85;;
4486;SDS011;2256;48.740;9.106;2024-01-15T08:46:07;7.78;;;3.60;;
4486;SDS011;2256;48.740;9.106;2024-01-15T08:48:34;15.05;;;3.45;;
4486;SDS011;2256;48.740;9.106;2024-01-15T08:51:01;6.53;;;3.67;;
4486;SDS011;2256;48.740;9.106;2024-01-15T08:53:28;12.05;;;3.60;;
4486;SDS011;2256;48.740;9.106;2024-01-15T08:55:56;7.45;;;3.15;;
4486;SDS011;2256;48.740;9.106;2024-01-15T08:58:23;5.10;;;2.90;;
4486;SDS011;2256;48.740;9.106;2024-01-15T09:00:51;7.72;;;3.28;;
4486;SDS011;2256;48.740;9.106;2024-01-15T09:03:18;4.05;;;2.50;;
4486;SDS011;2256;48.740;9.106;2024-01-15T09:05:45;4.28;;;2.42;;
4486;SDS011;2256;48.740;9.106;2024-01-15T09:08:13;6.35;;;2.70;;
4486;SDS011;2256;48.740;9.106;2024-01-15T09:10:40;2.83;;;2.22;;
4486;SDS011;2256;48.740;9.106;2024-01-15T09:13:07;4.10;;;2.72;;
4486;SDS011;2256;48.740;9.106;2024-01-15T09:15:34;5.55;;;2.97;;
4486;SDS011;2256;48.740;9.106;2024-01-15T09:18:02;7.60;;;2.72;;
4486;SDS011;2256;48.740;9.106;2024-01-15T09:20:30;30.50;;;3.03;;
4486;SDS011;2256;48.740;9.106;2024-01-15T09:22:57;11.65;;;2.70;;
4486;SDS011;2256;48.740;9.106;2024-01-15T09:25:24;7.50;;;3.10;;
4486;SDS011;2256;48.740;9.106;2024-01-15T09:27:51;10.23;;;3.05;;
4486;SDS011;2256;48.740;9.106;2024-01-15T09:30:19;3.67;;;2.25;;
4486;SDS011;2256;48.740;9.106;2024-01-15T09:32:46;3.40;;;2.40;;
4486;SDS011;2256;48.740;9.106;2024-01-15T09:35:16;7.45;;;2.30;;
4486;SDS011;2256;48.740;9.106;2024-01-15T09:37:43;7.45;;;2.55;;
4486;SDS011;2256;48.740;9.106;2024-01-15T09:40:12;4.70;;;2.10;;
4486;SDS011;2256;48.740;9.106;2024-01-15T09:42:39;5.47;;;3.30;;
4486;SDS011;2256;48.740;9.106;2024-01-15T09:45:07;8.13;;;2.90;;
4486;SDS011;2256;48.740;9.106;2024-01-15T09:47:35;9.60;;;2.80;;
4486;SDS011;2256;48.740;9.106;2024-01-15T09:50:03;6.20;;;3.63;;
4486;SDS011;2256;48.740;9.106;2024-01-15T09:52:32;9.13;;;2.72;;
4486;SDS011;2256;48.740;9.106;2024-01-15T09:55:01;23.50;;;2.90;;
4486;SDS011;2256;48.740;9.106;2024-01-15T09:57:30;6.53;;;2.90;;
4486;SDS011;2256;48.740;9.106;2024-01-15T09:59:57;8.07;;;2.85;;
4486;SDS011;2256;48.740;9.106;2024-01-15T10:02:29;9.48;;;3.15;;
4486;SDS011;2256;48.740;9.106;2024-01-15T10:04:57;11.82;;;3.55;;
4486;SDS011;2256;48.740;9.106;2024-01-15T10:07:25;7.25;;;3.28;;
4486;SDS011;2256;48.740;9.106;2024-01-15T10:09:55;5.53;;;3.15;;
4486;SDS011;2256;48.740;9.106;2024-01-15T10:12:22;13.68;;;3.80;;
4486;SDS011;2256;48.740;9.106;2024-01-15T10:14:50;8.55;;;3.25;;
4486;SDS011;2256;48.740;9.106;2024-01-15T10:17:17;5.60;;;2.60;;
4486;SDS011;2256;48.740;9.106;2024-01-15T10:19:44;8.32;;;3.50;;
4486;SDS011;2256;48.740;9.106;2024-01-15T10:22:15;8.52;;;3.08;;
4486;SDS011;2256;48.740;9.106;2024-01-15T10:24:42;6.50;;;3.20;;
4486;SDS011;2256;48.740;9.106;2024-01-15T10:27:12;5.35;;;2.80;;
4486;SDS011;2256;48.740;9.106;2024-01-15T10:29:40;4.65;;;2.72;;
4486;SDS011;2256;48.740;9.106;2024-01-15T10:32:08;5.70;;;2.90;;
4486;SDS011;2256;48.740;9.106;2024-01-15T10:34:37;8.20;;;3.95;;
4486;SDS011;2256;48.740;9.106;2024-01-15T10:37:06;7.13;;;3.60;;
4486;SDS011;2256;48.740;9.106;2024-01-15T10:39:34;5.07;;;2.22;;
4486;SDS011;2256;48.740;9.106;2024-01-15T10:42:01;5.05;;;2.47;;
4486;SDS011;2256;48.740;9.106;2024-01-15T10:44:30;3.80;;;2.60;;
4486;SDS011;2256;48.740;9.106;2024-01-15T10:46:57;3.22;;;2.40;;
4486;SDS011;2256;48.740;9.106;2024-01-15T10:49:24;3.63;;;2.63;;
4486;SDS011;2256;48.740;9.106;2024-01-15T10:51:54;6.38;;;4.00;;
4486;SDS011;2256;48.740;9.106;2024-01-15T10:54:21;5.90;;;3.00;;
4486;SDS011;2256;48.740;9.106;2024-01-15T10:56:49;5.93;;;2.70;;
4486;SDS011;2256;48.740;9.106;2024-01-15T10:59:18;9.65;;;2.55;;
4486;SDS011;2256;48.740;9.106;2024-01-15T11:01:49;7.32;;;2.85;;
4486;SDS011;2256;48.740;9.106;2024-01-15T11:04:18;7.57;;;3.08;;
4486;SDS011;2256;48.740;9.106;2024-01-15T11:06:47;3.85;;;2.35;;
4486;SDS011;2256;48.740;9.106;2024-01-15T11:09:16;9.20;;;3.10;;
4486;SDS011;2256;48.740;9.106;2024-01-15T11:11:44;7.88;;;3.50;;
4486;SDS011;2256;48.740;9.106;2024-01-15T11:14:18;6.70;;;3.00;;
4486;SDS011;2256;48.740;9.106;2024-01-15T11:17:01;3.72;;;2.80;;
4486;SDS011;2256;48.740;9.106;2024-01-15T11:19:35;6.60;;;2.85;;
4486;SDS011;2256;48.740;9.106;2024-01-15T11:22:02;5.20;;;3.03;;
4486;SDS011;2256;48.740;9.106;2024-01-15T11:24:34;7.28;;;2.75;;
4486;SDS011;2256;48.740;9.106;2024-01-15T11:27:02;5.72;;;3.25;;
4486;SDS011;2256;48.740;9.106;2024-01-15T11:29:30;8.30;;;3.10;;
4486;SDS011;2256;48.740;9.106;2024-01-15T11:32:00;8.68;;;3.83;;
4486;SDS011;2256;48.740;9.106;2024-01-15T11:34:49;8.70;;;2.83;;
4486;SDS011;2256;48.740;9.106;2024-01-15T11:37:17;8.98;;;3.33;;
4486;SDS011;2256;48.740;9.106;2024-01-15T11:39:44;8.80;;;3.65;;
4486;SDS011;2256;48.740;9.106;2024-01-15T11:42:12;6.88;;;3.35;;
4486;SDS011;2256;48.740;9.106;2024-01-15T11:44:39;7.25;;;3.58;;
4486;SDS011;2256;48.740;9.106;2024-01-15T11:47:28;7.20;;;3.17;;
4486;SDS011;2256;48.740;9.106;2024-01-15T11:50:21;4.53;;;3.75;;
4486;SDS011;2256;48.740;9.106;2024-01-15T11:52:49;7.40;;;3.67;;
4486;SDS011;2256;48.740;9.106;2024-01-15T11:55:26;8.20;;;3.75;;
4486;SDS011;2256;48.740;9.106;2024-01-15T11:57:57;7.00;;;3.05;;
4486;SDS011;2256;48.740;9.106;2024-01-15T12:00:26;9.13;;;3.47;;
4486;SDS011;2256;48.740;9.106;2024-01-15T12:02:58;8.68;;;3.47;;
4486;SDS011;2256;48.740;9.106;2024-01-15T12:05:27;2.85;;;2.20;;
4486;SDS011;2256;48.740;9.106;2024-01-15T12:07:54;12.10;;;3.50;;
4486;SDS011;2256;48.740;9.106;2024-01-15T12:10:20;6.47;;;2.80;;
4486;SDS011;2256;48.740;9.106;2024-01-15T12:12:53;6.72;;;3.40;;
4486;SDS011;2256;48.740;9.106;2024-01-15T12:15:24;6.63;;;2.95;;
4486;SDS011;2256;48.740;9.106;2024-01-15T12:17:51;7.30;;;2.85;;
4486;SDS011;2256;48.740;9.106;2024-01-15T12:20:19;4.40;;;3.00;;
4486;SDS011;2256;48.740;9.106;2024-01-15T12:22:46;7.50;;;2.85;;
4486;SDS011;2256;48.740;9.106;2024-01-15T12:25:13;5.35;;;2.78;;
4486;SDS011;2256;48.740;9.106;2024-01-15T12:27:40;12.27;;;3.95;;
4486;SDS011;2256;48.740;9.106;2024-01-15T12:30:10;6.97;;;3.38;;
4486;SDS011;2256;48.740;9.106;2024-01-15T12:32:37;6.63;;;3.45;;
4486;SDS011;2256;48.740;9.106;2024-01-15T12:35:06;10.18;;;3.67;;
4486;SDS011;2256;48.740;9.106;2024-01-15T12:37:36;7.85;;;3.42;;
4486;SDS011;2256;48.740;9.106;2024-01-15T12:40:04;8.57;;;3.47;;
4486;SDS011;2256;48.740;9.106;2024-01-15T12:42:34;11.93;;;3.47;;
4486;SDS011;2256;48.740;9.106;2024-01-15T12:45:00;8.32;;;3.22;;
4486;SDS011;2256;48.740;9.106;2024-01-15T12:47:28;7.43;;;3.75;;
4486;SDS011;2256;48.740;9.106;2024-01-15T12:49:55;10.20;;;3.15;;
4486;SDS011;2256;48.740;9.106;2024-01-15T12:52:26;11.02;;;3.03;;
4486;SDS011;2256;48.740;9.106;2024-01-15T12:54:54;7.68;;;2.70;;
4486;SDS011;2256;48.740;9.106;2024-01-15T12:57:21;11.13;;;3.63;;
4486;SDS011;2256;48.740;9.106;2024-01-15T12:59:48;5.78;;;3.45;;
4486;SDS011;2256;48.740;9.106;2024-01-15T13:02:16;10.15;;;3.67;;
4486;SDS011;2256;48.740;9.106;2024-01-15T13:04:43;6.22;;;3.08;;
4486;SDS011;2256;48.740;9.106;2024-01-15T13:07:11;14.65;;;3.45;;
4486;SDS011;2256;48.740;9.106;2024-01-15T13:09:38;7.50;;;3.05;;
4486;SDS011;2256;48.740;9.106;2024-01-15T13:12:06;11.20;;;3.15;;
4486;SDS011;2256;48.740;9.106;2024-01-15T13:14:34;9.43;;;3.97;;
4486;SDS011;2256;48.740;9.106;2024-01-15T13:17:01;5.80;;;2.50;;
4486;SDS011;2256;48.740;9.106;2024-01-15T13:19:28;7.95;;;2.65;;
4486;SDS011;2256;48.740;9.106;2024-01-15T13:21:55;6.82;;;2.83;;
4486;SDS011;2256;48.740;9.106;2024-01-15T13:24:25;3.00;;;2.20;;
4486;SDS011;2256;48.740;9.106;2024-01-15T13:26:51;3.60;;;2.30;;
4486;SDS011;2256;48.740;9.106;2024-01-15T13:29:20;3.30;;;2.30;;
4486;SDS011;2256;48.740;9.106;2024-01-15T13:31:46;4.72;;;2.20;;
4486;SDS011;2256;48.740;9.106;2024-01-15T13:34:13;4.50;;;2.38;;
4486;SDS011;2256;48.740;9.106;2024-01-15T13:36:40;5.43;;;3.10;;
4486;SDS011;2256;48.740;9.106;2024-01-15T13:39:08;4.22;;;2.28;;
4486;SDS011;2256;48.740;9.106;2024-01-15T13:41:36;4.40;;;2.05;;
4486;SDS011;2256;48.740;9.106;2024-01-15T13:44:02;6.70;;;2.88;;
4486;SDS011;2256;48.740;9.106;2024-01-15T13:46:31;5.40;;;2.15;;
4486;SDS011;2256;48.740;9.106;2024-01-15T13:48:58;3.03;;;1.92;;
4486;SDS011;2256;48.740;9.106;2024-01-15T13:51:25;3.90;;;2.67;;
4486;SDS011;2256;48.740;9.106;2024-01-15T13:53:52;11.90;;;2.92;;
4486;SDS011;2256;48.740;9.106;2024-01-15T13:56:19;4.07;;;2.50;;
4486;SDS011;2256;48.740;9.106;2024-01-15T13:58:46;4.72;;;2.25;;
4486;SDS011;2256;48.740;9.106;2024-01-15T14:01:14;8.07;;;2.80;;
4486;SDS011;2256;48.740;9.106;2024-01-15T14:03:44;3.33;;;2.10;;
4486;SDS011;2256;48.740;9.106;2024-01-15T14:06:10;2.28;;;1.75;;
4486;SDS011;2256;48.740;9.106;2024-01-15T14:08:37;4.25;;;2.67;;
4486;SDS011;2256;48.740;9.106;2024-01-15T14:11:04;2.50;;;1.73;;
4486;SDS011;2256;48.740;9.106;2024-01-15T14:13:32;12.40;;;2.28;;
4486;SDS011;2256;48.740;9.106;2024-01-15T14:15:59;3.33;;;2.47;;
4486;SDS011;2256;48.740;9.106;2024-01-15T14:18:26;4.32;;;2.03;;
4486;SDS011;2256;48.740;9.106;2024-01-15T14:20:54;2.50;;;2.15;;
4486;SDS011;2256;48.740;9.106;2024-01-15T14:23:21;3.95;;;1.90;;
4486;SDS011;2256;48.740;9.106;2024-01-15T14:25:48;7.82;;;2.53;;
4486;SDS011;2256;48.740;9.106;2024-01-15T14:28:15;5.88;;;2.38;;
4486;SDS011;2256;48.740;9.106;2024-01-15T14:30:41;3.63;;;2.10;;
4486;SDS011;2256;48.740;9.106;2024-01-15T14:33:08;8.68;;;1.90;;
4486;SDS011;2256;48.740;9.106;2024-01-15T14:35:35;3.95;;;2.05;;
4486;SDS011;2256;48.740;9.106;2024-01-15T14:38:04;3.90;;;1.80;;
4486;SDS011;2256;48.740;9.106;2024-01-15T14:40:30;2.38;;;2.10;;
4486;SDS011;2256;48.740;9.106;2024-01-15T14:42:57;2.10;;;1.65;;
4486;SDS011;2256;48.740;9.106;2024-01-15T14:45:24;3.15;;;2.20;;
4486;SDS011;2256;48.740;9.106;2024-01-15T14:47:52;3.00;;;2.03;;
4486;SDS011;2256;48.740;9.106;2024-01-15T14:50:20;5.53;;;2.42;;
4486;SDS011;2256;48.740;9.106;2024-01-15T14:52:47;2.97;;;2.42;;
4486;SDS011;2256;48.740;9.106;2024-01-15T14:55:15;7.45;;;2.28;;
4486;SDS011;2256;48.740;9.106;2024-01-15T14:57:42;7.25;;;2.30;;
4486;SDS011;2256;48.740;9.106;2024-01-15T15:00:10;6.13;;;2.47;;
4486;SDS011;2256;48.740;9.106;2024-01-15T15:02:38;4.43;;;2.20;;
4486;SDS011;2256;48.740;9.106;2024-01-15T15:05:06;10.20;;;2.30;;
4486;SDS011;2256;48.740;9.106;2024-01-15T15:07:33;4.50;;;2.63;;
4486;SDS011;2256;48.740;9.106;2024-01-15T15:10:01;5.78;;;2.70;;
4486;SDS011;2256;48.740;9.106;2024-01-15T15:12:31;3.53;;;1.95;;
4486;SDS011;2256;48.740;9.106;2024-01-15T15:14:58;6.25;;;3.20;;